createdAt,value
2023-03-17T00:03:01.384Z,7.50
2023-03-17T00:08:02.566Z,7.52
2023-03-17T00:13:03.852Z,7.49
2023-03-17T00:18:05.028Z,7.44
2023-03-17T00:23:06.242Z,7.40
2023-03-17T00:28:08.037Z,7.38
2023-03-17T00:33:09.271Z,7.38
2023-03-17T00:38:10.457Z,7.42
2023-03-17T00:43:11.732Z,7.44
2023-03-17T00:48:13.394Z,7.35
2023-03-17T00:53:14.860Z,7.25
2023-03-17T00:58:16.139Z,7.28
2023-03-17T01:03:17.309Z,7.32
2023-03-17T01:08:18.478Z,7.31
2023-03-17T01:13:19.670Z,7.35
2023-03-17T01:18:21.264Z,7.32
2023-03-17T01:23:22.557Z,7.36
2023-03-17T01:28:24.451Z,7.32
2023-03-17T01:33:26.408Z,7.34
2023-03-17T01:38:27.554Z,7.36
2023-03-17T01:43:29.325Z,7.32
2023-03-17T01:48:31.439Z,7.30
2023-03-17T01:53:33.560Z,7.24
2023-03-17T01:58:35.323Z,7.16
2023-03-17T02:03:36.493Z,7.20
2023-03-17T02:08:37.647Z,7.25
2023-03-17T02:13:38.945Z,7.15
2023-03-17T02:18:40.205Z,7.13
2023-03-17T02:23:41.451Z,7.10
2023-03-17T02:28:45.902Z,7.05
2023-03-17T02:33:47.150Z,6.97
2023-03-17T02:38:48.365Z,6.90
2023-03-17T02:43:49.631Z,6.90
2023-03-17T02:48:50.841Z,6.88
2023-03-17T02:53:52.078Z,6.77
2023-03-17T02:58:53.259Z,6.83
2023-03-17T03:03:54.465Z,6.78
2023-03-17T03:08:55.758Z,6.74
2023-03-17T03:13:56.916Z,6.71
2023-03-17T03:18:58.359Z,6.69
2023-03-17T03:23:59.531Z,6.64
2023-03-17T03:29:00.858Z,6.60
2023-03-17T03:34:02.074Z,6.55
2023-03-17T03:39:03.254Z,6.54
2023-03-17T03:44:04.513Z,6.48
2023-03-17T03:49:05.734Z,6.42
2023-03-17T03:54:07.114Z,6.42
2023-03-17T03:59:09.689Z,6.36
2023-03-17T04:04:10.869Z,6.23
2023-03-17T04:09:13.289Z,6.23
2023-03-17T04:14:14.865Z,6.37
2023-03-17T04:19:16.325Z,6.47
2023-03-17T04:24:17.597Z,6.48
2023-03-17T04:29:19.003Z,6.47
2023-03-17T04:34:20.241Z,6.46
2023-03-17T04:39:21.464Z,6.42
2023-03-17T04:44:22.614Z,6.43
2023-03-17T04:49:23.825Z,6.38
2023-03-17T04:54:25.141Z,6.38
2023-03-17T04:59:26.726Z,6.34
2023-03-17T05:04:31.516Z,6.38
2023-03-17T05:09:33.149Z,6.33
2023-03-17T05:14:34.403Z,6.34
2023-03-17T05:19:35.904Z,6.31
2023-03-17T05:24:37.069Z,6.32
2023-03-17T05:29:38.693Z,6.37
2023-03-17T05:34:39.896Z,6.45
2023-03-17T05:39:42.033Z,6.47
2023-03-17T05:44:43.228Z,6.51
2023-03-17T05:49:44.472Z,6.47
2023-03-17T05:54:48.831Z,6.53
2023-03-17T05:59:50.989Z,6.51
2023-03-17T06:04:52.243Z,6.52
2023-03-17T06:09:53.761Z,6.59
2023-03-17T06:14:55.081Z,6.62
2023-03-17T06:19:56.310Z,6.73
2023-03-17T06:24:57.487Z,6.80
2023-03-17T06:30:00.273Z,6.90
2023-03-17T06:35:01.524Z,7.03
2023-03-17T06:40:04.393Z,7.14
2023-03-17T06:45:05.585Z,7.24
2023-03-17T06:50:06.759Z,7.36
2023-03-17T06:55:08.542Z,7.43
2023-03-17T07:00:09.695Z,7.54
2023-03-17T07:05:12.550Z,7.62
2023-03-17T07:10:17.215Z,7.68
2023-03-17T07:15:18.928Z,7.75
2023-03-17T07:20:20.132Z,7.81
2023-03-17T07:25:22.418Z,7.87
2023-03-17T07:30:23.567Z,8.04
2023-03-17T07:35:24.837Z,8.21
2023-03-17T07:40:26.661Z,8.41
2023-03-17T07:45:28.009Z,8.61
2023-03-17T07:50:29.342Z,8.86
2023-03-17T07:55:30.735Z,9.13
2023-03-17T08:00:32.523Z,9.30
2023-03-17T08:05:34.359Z,9.53
2023-03-17T08:10:36.120Z,9.72
2023-03-17T08:15:37.571Z,9.90
2023-03-17T08:20:39.066Z,10.11
2023-03-17T08:25:40.259Z,10.31
2023-03-17T08:30:42.366Z,10.59
2023-03-17T08:35:43.722Z,10.81
2023-03-17T08:40:44.894Z,11.14
2023-03-17T08:45:46.199Z,11.52
2023-03-17T08:50:47.414Z,11.80
2023-03-17T08:55:48.664Z,12.01
2023-03-17T09:00:49.953Z,12.36
2023-03-17T09:05:51.387Z,12.43
2023-03-17T09:10:53.083Z,12.52
2023-03-17T09:15:54.357Z,12.55
2023-03-17T09:20:56.411Z,12.53
2023-03-17T09:25:57.592Z,12.61
2023-03-17T09:30:59.143Z,12.71
2023-03-17T09:36:00.601Z,12.83
2023-03-17T09:41:01.848Z,13.16
2023-03-17T09:46:03.208Z,13.43
2023-03-17T09:51:04.983Z,13.74
2023-03-17T09:56:06.567Z,14.19
2023-03-17T10:01:07.742Z,14.98
2023-03-17T10:06:10.466Z,15.17
2023-03-17T10:11:14.781Z,15.60
2023-03-17T10:16:15.997Z,16.11
2023-03-17T10:21:17.250Z,16.25
2023-03-17T10:26:18.512Z,15.78
2023-03-17T10:31:19.926Z,15.68
2023-03-17T10:36:21.401Z,15.79
2023-03-17T10:41:23.061Z,16.24
2023-03-17T10:46:25.062Z,16.41
2023-03-17T10:51:26.410Z,16.49
2023-03-17T10:56:27.681Z,17.34
2023-03-17T11:01:29.345Z,17.88
2023-03-17T11:06:30.594Z,18.51
2023-03-17T11:11:33.114Z,19.55
2023-03-17T11:16:34.666Z,19.42
2023-03-17T11:21:35.923Z,19.01
2023-03-17T11:26:37.310Z,18.52
2023-03-17T11:31:38.480Z,18.06
2023-03-17T11:36:39.721Z,18.18
2023-03-17T11:41:41.689Z,18.43
2023-03-17T11:46:42.936Z,18.37
2023-03-17T11:51:45.234Z,18.46
2023-03-17T11:56:46.422Z,18.88
2023-03-17T12:01:47.633Z,18.69
2023-03-17T12:06:50.601Z,18.66
2023-03-17T12:11:51.864Z,18.51
2023-03-17T12:16:53.042Z,18.33
2023-03-17T12:21:54.399Z,17.82
2023-03-17T12:26:55.782Z,17.77
2023-03-17T12:31:57.003Z,17.75
2023-03-17T12:36:58.144Z,17.68
2023-03-17T12:41:59.750Z,18.01
2023-03-17T12:47:01.178Z,17.95
2023-03-17T12:52:02.844Z,17.99
2023-03-17T12:57:04.070Z,18.10
2023-03-17T13:02:06.036Z,18.12
2023-03-17T13:07:07.313Z,18.08
2023-03-17T13:12:08.677Z,18.11
2023-03-17T13:17:09.847Z,18.11
2023-03-17T13:22:11.573Z,18.17
2023-03-17T13:27:12.927Z,18.15
2023-03-17T13:32:14.439Z,18.05
2023-03-17T13:37:15.602Z,17.77
2023-03-17T13:42:18.723Z,17.72
2023-03-17T13:47:20.430Z,17.84
2023-03-17T13:52:21.822Z,17.70
2023-03-17T13:57:23.026Z,17.65
2023-03-17T14:02:24.819Z,17.61
2023-03-17T14:07:25.984Z,17.57
2023-03-17T14:12:27.220Z,17.65
2023-03-17T14:17:28.441Z,17.62
2023-03-17T14:22:29.619Z,17.47
2023-03-17T14:27:30.910Z,17.54
2023-03-17T14:32:32.270Z,17.55
2023-03-17T14:37:33.606Z,17.43
2023-03-17T14:42:34.789Z,17.30
2023-03-17T14:47:37.197Z,17.21
2023-03-17T14:52:41.095Z,16.99
2023-03-17T14:57:42.326Z,16.87
2023-03-17T15:02:44.223Z,16.71
2023-03-17T15:07:45.585Z,16.47
2023-03-17T15:12:46.805Z,16.23
2023-03-17T15:17:47.935Z,16.12
2023-03-17T15:22:49.289Z,16.05
2023-03-17T15:27:50.644Z,16.10
2023-03-17T15:32:51.977Z,16.03
2023-03-17T15:37:53.210Z,15.81
2023-03-17T15:42:54.377Z,15.55
2023-03-17T15:47:55.633Z,15.48
2023-03-17T15:52:57.065Z,15.42
2023-03-17T15:57:58.319Z,15.38
2023-03-17T16:02:59.621Z,15.28
2023-03-17T16:08:00.772Z,15.19
2023-03-17T16:13:02.008Z,15.09
2023-03-17T16:18:04.058Z,14.99
2023-03-17T16:23:05.261Z,14.80
2023-03-17T16:28:06.400Z,14.72
2023-03-17T16:33:07.598Z,14.62
2023-03-17T16:38:08.998Z,14.56
2023-03-17T16:43:22.549Z,14.44
2023-03-17T16:48:25.919Z,14.28
2023-03-17T16:53:27.115Z,14.18
2023-03-17T16:58:28.313Z,14.11
2023-03-17T17:03:29.579Z,13.75
2023-03-17T17:08:31.011Z,13.37
2023-03-17T17:13:32.440Z,13.24
2023-03-17T17:18:35.445Z,13.24
2023-03-17T17:23:38.597Z,13.10
2023-03-17T17:28:40.402Z,13.08
2023-03-17T17:33:41.606Z,13.05
2023-03-17T17:38:42.959Z,13.04
2023-03-17T17:43:46.053Z,12.99
2023-03-17T17:48:47.472Z,12.93
2023-03-17T17:53:49.886Z,12.89
2023-03-17T17:58:51.192Z,12.86
2023-03-17T18:03:52.440Z,12.73
2023-03-17T18:08:55.172Z,12.51
2023-03-17T18:13:56.380Z,12.30
2023-03-17T18:18:57.780Z,12.26
2023-03-17T18:23:59.517Z,12.25
2023-03-17T18:29:01.150Z,12.23
2023-03-17T18:34:02.345Z,12.16
2023-03-17T18:39:04.100Z,12.07
2023-03-17T18:44:07.312Z,12.00
2023-03-17T18:49:08.950Z,11.99
2023-03-17T18:54:10.968Z,11.95
2023-03-17T18:59:12.125Z,11.96
2023-03-17T19:04:13.456Z,11.96
2023-03-17T19:09:14.654Z,11.86
2023-03-17T19:14:15.860Z,11.86
2023-03-17T19:19:17.511Z,11.84
2023-03-17T19:24:18.803Z,11.84
2023-03-17T19:29:20.140Z,11.81
2023-03-17T19:34:21.407Z,11.80
2023-03-17T19:39:22.594Z,11.79
2023-03-17T19:44:23.811Z,11.83
2023-03-17T19:49:25.037Z,11.82
2023-03-17T19:54:26.269Z,11.78
2023-03-17T19:59:27.430Z,11.72
2023-03-17T20:04:28.673Z,11.68
2023-03-17T20:09:30.917Z,11.68
2023-03-17T20:14:32.430Z,11.58
2023-03-17T20:19:33.744Z,11.52
2023-03-17T20:24:34.904Z,11.42
2023-03-17T20:29:36.410Z,11.30
2023-03-17T20:34:37.660Z,11.25
2023-03-17T20:39:38.900Z,11.20
2023-03-17T20:44:40.092Z,11.07
2023-03-17T20:49:42.477Z,10.84
2023-03-17T20:54:43.758Z,10.70
2023-03-17T20:59:45.238Z,10.54
2023-03-17T21:04:48.068Z,10.36
2023-03-17T21:09:49.280Z,10.20
2023-03-17T21:14:50.648Z,10.12
2023-03-17T21:19:51.861Z,10.04
2023-03-17T21:24:53.090Z,10.02
2023-03-17T21:29:54.271Z,9.99
2023-03-17T21:34:55.618Z,9.98
2023-03-17T21:39:56.833Z,9.93
2023-03-17T21:44:58.031Z,9.91
2023-03-17T21:49:59.169Z,9.89
2023-03-17T21:55:00.363Z,9.87
2023-03-17T22:00:01.591Z,9.90
2023-03-17T22:05:02.711Z,9.88
2023-03-17T22:10:06.914Z,9.86
2023-03-17T22:15:10.155Z,9.84
2023-03-17T22:20:11.364Z,9.83
2023-03-17T22:25:12.560Z,9.78
2023-03-17T22:30:14.501Z,9.79
2023-03-17T22:35:19.123Z,9.76
2023-03-17T22:40:20.356Z,9.74
2023-03-17T22:45:22.165Z,9.75
2023-03-17T22:50:23.319Z,9.75
2023-03-17T22:55:24.633Z,9.74
2023-03-17T23:00:25.800Z,9.74
2023-03-17T23:05:26.993Z,9.75
2023-03-17T23:10:28.572Z,9.76
2023-03-17T23:15:29.773Z,9.78
2023-03-17T23:20:31.281Z,9.80
2023-03-17T23:25:32.665Z,9.83
2023-03-17T23:30:34.442Z,9.85
2023-03-17T23:35:35.932Z,9.86
2023-03-17T23:40:37.154Z,9.88
2023-03-17T23:45:38.832Z,9.89
2023-03-17T23:50:40.922Z,9.88
2023-03-17T23:55:42.096Z,9.92
